Time;durP1;ratioP1;P1;durP2;ratioP2;P2;SDS_P1;SDS_P2;PMS_P1;PMS_P2;Temp;Humidity;BMP_temperature;BMP_pressure;BME280_temperature;BME280_humidity;BME280_pressure;Samples;Min_cycle;Max_cycle;Signal;HPM_P1;HPM_P2
2022/07/17 00:01:43;;;;;;;1.30;1.20;;;;;14.60;102159.00;;;;5084485;28;20204;-68
2022/07/17 00:04:29;;;;;;;4.10;1.23;;;;;14.70;102154.00;;;;5084435;28;20205;-69
2022/07/17 00:07:15;;;;;;;3.23;1.50;;;;;14.60;102146.00;;;;5084260;28;20258;-70
2022/07/17 00:10:02;;;;;;;1.97;1.40;;;;;14.60;102146.00;;;;5077693;28;20216;-69
2022/07/17 00:12:50;;;;;;;3.10;1.27;;;;;14.50;102145.00;;;;5078800;28;20232;-70
2022/07/17 00:15:37;;;;;;;4.83;1.50;;;;;14.50;102141.00;;;;5076567;28;20212;-69
2022/07/17 00:18:24;;;;;;;3.13;1.30;;;;;14.40;102140.00;;;;5085898;28;20333;-68
2022/07/17 00:21:10;;;;;;;1.40;1.30;;;;;14.40;102139.00;;;;5086034;28;20289;-66
2022/07/17 00:23:56;;;;;;;1.53;1.20;;;;;14.30;102140.00;;;;5083207;28;20207;-68
2022/07/17 00:26:44;;;;;;;1.60;1.03;;;;;14.40;102138.00;;;;5082833;28;20227;-68
2022/07/17 00:29:32;;;;;;;1.10;1.07;;;;;14.30;102146.00;;;;5080932;28;20289;-69
2022/07/17 00:32:18;;;;;;;1.60;1.40;;;;;14.30;102139.00;;;;5079443;28;20220;-70
2022/07/17 00:35:05;;;;;;;1.20;1.10;;;;;14.20;102142.00;;;;5084197;28;20372;-70
2022/07/17 00:37:51;;;;;;;1.20;1.10;;;;;14.20;102140.00;;;;5083902;28;20209;-69
2022/07/17 00:40:38;;;;;;;1.67;1.17;;;;;14.20;102145.00;;;;5085427;28;20576;-70
2022/07/17 00:43:25;;;;;;;3.03;1.20;;;;;14.30;102135.00;;;;5082408;28;20224;-72
2022/07/17 00:46:14;;;;;;;1.43;1.00;;;;;14.10;102140.00;;;;5084802;28;20287;-70
2022/07/17 00:49:01;;;;;;;2.70;1.20;;;;;14.10;102149.00;;;;5078487;28;20334;-69
2022/07/17 00:51:48;;;;;;;2.33;1.30;;;;;14.00;102153.00;;;;5079329;28;20721;-68
2022/07/17 00:54:36;;;;;;;1.00;1.00;;;;;14.00;102152.00;;;;5077027;28;20350;-68
2022/07/17 00:57:23;;;;;;;1.33;1.23;;;;;13.90;102144.00;;;;5078117;28;20212;-67
2022/07/17 01:00:10;;;;;;;3.70;1.27;;;;;13.80;102149.00;;;;5085710;28;20226;-70
2022/07/17 01:02:58;;;;;;;2.57;1.20;;;;;13.80;102149.00;;;;5083233;28;20644;-69
2022/07/17 01:05:45;;;;;;;3.97;1.50;;;;;13.80;102146.00;;;;5081692;28;20228;-69
2022/07/17 01:08:33;;;;;;;1.30;1.20;;;;;13.70;102148.00;;;;5083688;28;20293;-68
2022/07/17 01:11:19;;;;;;;2.03;1.30;;;;;13.70;102137.00;;;;5079635;28;20203;-67
2022/07/17 01:14:06;;;;;;;1.40;1.30;;;;;13.70;102137.00;;;;5069508;28;20304;-67
2022/07/17 01:16:54;;;;;;;1.60;1.20;;;;;13.70;102133.00;;;;5085629;28;20671;-68
2022/07/17 01:19:42;;;;;;;1.77;1.20;;;;;13.50;102140.00;;;;5081802;28;20308;-68
2022/07/17 01:22:31;;;;;;;2.43;1.10;;;;;13.60;102130.00;;;;5086022;28;20223;-67
2022/07/17 01:25:21;;;;;;;1.43;1.33;;;;;13.40;102135.00;;;;5080747;28;20223;-69
2022/07/17 01:28:08;;;;;;;3.37;1.27;;;;;13.50;102143.00;;;;5082265;28;20203;-69
2022/07/17 01:30:55;;;;;;;1.30;1.20;;;;;13.50;102133.00;;;;5084322;28;20642;-68
2022/07/17 01:33:42;;;;;;;1.37;1.20;;;;;13.40;102135.00;;;;5076994;28;20300;-66
2022/07/17 01:36:28;;;;;;;1.30;1.20;;;;;13.40;102133.00;;;;5083685;28;20210;-69
2022/07/17 01:39:16;;;;;;;2.20;1.23;;;;;13.30;102136.00;;;;5085810;28;20230;-68
2022/07/17 01:42:02;;;;;;;3.73;1.30;;;;;13.40;102139.00;;;;5083684;28;20218;-68
2022/07/17 01:44:49;;;;;;;2.70;1.23;;;;;13.30;102126.00;;;;5084655;28;20293;-68
2022/07/17 01:47:38;;;;;;;2.83;1.30;;;;;13.10;102130.00;;;;5084371;28;20230;-69
2022/07/17 01:50:24;;;;;;;0.93;0.93;;;;;13.10;102138.00;;;;5076092;28;20211;-69
2022/07/17 01:53:10;;;;;;;2.93;1.30;;;;;13.00;102119.00;;;;5081532;28;20226;-69
2022/07/17 01:55:58;;;;;;;2.03;1.50;;;;;13.00;102127.00;;;;5083849;28;20265;-69
2022/07/17 01:58:45;;;;;;;1.40;1.20;;;;;13.00;102116.00;;;;5075219;28;20208;-68
2022/07/17 02:01:31;;;;;;;2.50;1.10;;;;;13.00;102127.00;;;;5076366;28;20208;-69
2022/07/17 02:04:18;;;;;;;1.30;1.20;;;;;12.90;102122.00;;;;5078048;28;20207;-69
2022/07/17 02:07:05;;;;;;;2.00;1.23;;;;;12.90;102083.00;;;;5082305;28;20631;-68
2022/07/17 02:09:51;;;;;;;2.60;1.30;;;;;12.90;102117.00;;;;5082673;28;20262;-69
2022/07/17 02:12:39;;;;;;;1.77;1.40;;;;;12.80;102118.00;;;;5082276;28;20254;-69
2022/07/17 02:15:25;;;;;;;4.00;1.20;;;;;12.70;102127.00;;;;5084927;28;20212;-68
2022/07/17 02:18:12;;;;;;;1.60;1.33;;;;;12.80;102125.00;;;;5083348;28;20582;-69
2022/07/17 02:20:58;;;;;;;2.70;1.43;;;;;12.70;102137.00;;;;5079185;28;20589;-70
2022/07/17 02:23:44;;;;;;;6.50;1.47;;;;;12.70;102131.00;;;;5073513;28;20990;-69
2022/07/17 02:26:31;;;;;;;2.50;1.30;;;;;12.70;102139.00;;;;5071911;28;20220;-67
2022/07/17 02:29:18;;;;;;;1.67;1.33;;;;;12.70;102137.00;;;;5076644;28;20215;-70
2022/07/17 02:32:05;;;;;;;1.67;1.30;;;;;12.70;102134.00;;;;5084392;28;20232;-71
2022/07/17 02:34:52;;;;;;;2.83;1.40;;;;;12.70;102132.00;;;;5083771;28;20222;-68
2022/07/17 02:37:39;;;;;;;1.60;1.20;;;;;12.60;102130.00;;;;5083093;28;20584;-68
2022/07/17 02:40:25;;;;;;;2.33;1.30;;;;;12.50;102134.00;;;;5073485;28;20334;-68
2022/07/17 02:43:12;;;;;;;1.97;1.30;;;;;12.60;102133.00;;;;5081960;28;20232;-68
2022/07/17 02:45:59;;;;;;;2.87;1.63;;;;;12.50;102144.00;;;;5082755;28;20310;-69
2022/07/17 02:48:45;;;;;;;3.00;1.57;;;;;12.60;102138.00;;;;5081080;28;20216;-69
2022/07/17 02:51:31;;;;;;;5.60;1.30;;;;;12.50;102135.00;;;;5084350;28;20249;-68
2022/07/17 02:54:18;;;;;;;1.27;1.17;;;;;12.50;102137.00;;;;5088172;28;20203;-70
2022/07/17 02:57:04;;;;;;;1.30;1.20;;;;;12.50;102134.00;;;;5086598;28;20219;-67
2022/07/17 02:59:50;;;;;;;2.27;1.37;;;;;12.50;102121.00;;;;5088486;28;20208;-69
2022/07/17 03:02:39;;;;;;;1.33;1.10;;;;;12.50;102116.00;;;;5087672;28;20591;-69
2022/07/17 03:05:25;;;;;;;4.10;1.20;;;;;12.50;102121.00;;;;5086112;28;20352;-68
2022/07/17 03:08:11;;;;;;;1.20;1.10;;;;;12.40;102128.00;;;;5079055;28;20250;-70
2022/07/17 03:10:57;;;;;;;3.53;1.20;;;;;12.40;102126.00;;;;5079055;28;20583;-69
2022/07/17 03:13:43;;;;;;;1.57;1.10;;;;;12.40;102133.00;;;;5084966;28;21878;-69
2022/07/17 03:16:30;;;;;;;1.57;1.30;;;;;12.30;102142.00;;;;5072938;28;20224;-69
2022/07/17 03:19:19;;;;;;;1.33;1.23;;;;;12.30;102145.00;;;;5084705;28;20215;-68
2022/07/17 03:22:05;;;;;;;1.80;1.10;;;;;12.30;102142.00;;;;5086219;28;20232;-69
2022/07/17 03:24:53;;;;;;;2.47;1.20;;;;;12.30;102142.00;;;;5083194;28;20245;-69
2022/07/17 03:27:39;;;;;;;1.33;1.13;;;;;12.20;102142.00;;;;5084934;28;20236;-68
2022/07/17 03:30:25;;;;;;;1.47;1.20;;;;;12.30;102152.00;;;;5075324;28;20233;-69
2022/07/17 03:33:12;;;;;;;1.83;1.33;;;;;12.20;102143.00;;;;5087062;28;20924;-68
2022/07/17 03:35:59;;;;;;;2.33;1.30;;;;;12.20;102140.00;;;;5081319;28;20231;-69
2022/07/17 03:38:45;;;;;;;2.23;1.30;;;;;12.20;102147.00;;;;5088286;28;20261;-70
2022/07/17 03:41:32;;;;;;;1.20;1.10;;;;;12.10;102145.00;;;;5085275;28;20281;-68
2022/07/17 03:44:18;;;;;;;1.20;1.10;;;;;12.20;102143.00;;;;5086288;28;20697;-69
2022/07/17 03:47:05;;;;;;;1.30;1.20;;;;;12.10;102143.00;;;;5084163;28;20832;-69
2022/07/17 03:49:51;;;;;;;2.47;1.50;;;;;12.00;102146.00;;;;5086753;28;20203;-70
2022/07/17 03:52:39;;;;;;;1.57;1.33;;;;;12.10;102147.00;;;;5075607;28;20759;-70
2022/07/17 03:55:25;;;;;;;1.40;1.30;;;;;12.10;102144.00;;;;5079957;28;20212;-70
2022/07/17 03:58:11;;;;;;;4.93;1.80;;;;;12.20;102137.00;;;;5085346;28;20291;-70
2022/07/17 04:01:00;;;;;;;2.23;1.30;;;;;12.20;102138.00;;;;5086883;28;20203;-70
2022/07/17 04:03:46;;;;;;;1.40;1.20;;;;;12.10;102147.00;;;;5073336;28;20220;-69
2022/07/17 04:06:33;;;;;;;3.17;1.50;;;;;12.10;102149.00;;;;5081417;28;20683;-71
2022/07/17 04:09:20;;;;;;;0.90;0.90;;;;;12.00;102149.00;;;;5073946;28;20251;-68
2022/07/17 04:12:07;;;;;;;1.57;1.43;;;;;12.10;102152.00;;;;5080210;28;20661;-69
2022/07/17 04:14:53;;;;;;;1.40;1.10;;;;;12.10;102149.00;;;;5084077;28;20203;-69
2022/07/17 04:17:39;;;;;;;1.37;1.17;;;;;12.10;102135.00;;;;5076332;28;20212;-68
2022/07/17 04:20:25;;;;;;;3.03;1.43;;;;;12.10;102138.00;;;;5078393;28;20598;-68
2022/07/17 04:23:12;;;;;;;4.53;1.40;;;;;12.10;102141.00;;;;5085938;28;20231;-67
2022/07/17 04:26:00;;;;;;;3.83;1.47;;;;;12.20;102147.00;;;;5086616;28;20208;-70
2022/07/17 04:28:54;;;;;;;4.53;1.37;;;;;12.30;102140.00;;;;5072323;28;20242;-69
2022/07/17 04:31:41;;;;;;;3.53;1.37;;;;;12.20;102133.00;;;;5081857;28;20212;-69
2022/07/17 04:34:27;;;;;;;3.73;1.20;;;;;12.30;102142.00;;;;5075525;28;20710;-71
2022/07/17 04:37:14;;;;;;;1.70;1.60;;;;;12.40;102136.00;;;;5077889;28;20785;-69
2022/07/17 04:40:00;;;;;;;3.00;1.50;;;;;12.40;102136.00;;;;5082463;28;20214;-69
2022/07/17 04:42:48;;;;;;;1.83;1.33;;;;;12.50;102136.00;;;;5085664;28;20230;-69
2022/07/17 04:45:34;;;;;;;2.17;1.53;;;;;12.60;102143.00;;;;5076272;28;20211;-68
2022/07/17 04:48:21;;;;;;;2.70;1.30;;;;;12.60;102162.00;;;;5079651;28;20231;-68
2022/07/17 04:51:07;;;;;;;3.37;1.30;;;;;12.70;102157.00;;;;5085573;28;20227;-69
2022/07/17 04:53:53;;;;;;;2.60;1.77;;;;;12.90;102169.00;;;;5076399;28;20647;-69
2022/07/17 04:56:39;;;;;;;3.60;1.77;;;;;13.10;102172.00;;;;5077384;28;20211;-69
2022/07/17 04:59:27;;;;;;;4.30;2.10;;;;;13.20;102186.00;;;;5078522;28;20214;-67
2022/07/17 05:02:13;;;;;;;3.73;1.70;;;;;13.30;102181.00;;;;5079234;28;20276;-72
2022/07/17 05:04:59;;;;;;;4.70;1.50;;;;;13.50;102182.00;;;;5082182;28;20804;-70
2022/07/17 05:07:46;;;;;;;2.17;1.80;;;;;13.50;102179.00;;;;5081448;28;20285;-68
2022/07/17 05:10:32;;;;;;;2.13;1.77;;;;;13.60;102179.00;;;;5085073;28;20211;-69
2022/07/17 05:13:18;;;;;;;6.30;1.70;;;;;13.70;102188.00;;;;5085229;28;20596;-68
2022/07/17 05:16:07;;;;;;;6.10;1.90;;;;;13.80;102180.00;;;;5084671;28;20215;-70
2022/07/17 05:18:53;;;;;;;4.60;1.53;;;;;13.90;102178.00;;;;5084180;28;21015;-68
2022/07/17 05:21:40;;;;;;;2.90;1.60;;;;;13.90;102182.00;;;;5085798;28;20203;-68
2022/07/17 05:24:26;;;;;;;3.17;1.70;;;;;13.90;102173.00;;;;5082566;28;20207;-69
2022/07/17 05:27:12;;;;;;;4.47;1.90;;;;;13.90;102165.00;;;;5078823;28;20319;-68
2022/07/17 05:29:58;;;;;;;2.73;1.73;;;;;14.00;102168.00;;;;5074808;28;20360;-69
2022/07/17 05:32:46;;;;;;;1.93;1.60;;;;;14.00;102181.00;;;;5080659;28;20227;-68
2022/07/17 05:35:32;;;;;;;3.37;1.80;;;;;14.10;102182.00;;;;5082703;28;20728;-69
2022/07/17 05:38:18;;;;;;;2.80;1.80;;;;;14.20;102181.00;;;;5079201;28;20268;-69
2022/07/17 05:41:05;;;;;;;2.47;1.80;;;;;14.30;102177.00;;;;5084907;28;20206;-67
2022/07/17 05:43:51;;;;;;;2.10;1.53;;;;;14.30;102174.00;;;;5082282;28;20231;-69
2022/07/17 05:46:37;;;;;;;4.73;2.00;;;;;14.40;102184.00;;;;5085895;28;20604;-69
2022/07/17 05:49:25;;;;;;;7.40;1.87;;;;;14.40;102175.00;;;;5085197;28;20289;-68
2022/07/17 05:52:12;;;;;;;7.27;2.30;;;;;14.70;102173.00;;;;5081131;28;20234;-68
2022/07/17 05:54:58;;;;;;;4.53;1.73;;;;;14.60;102173.00;;;;5076911;28;20223;-67
2022/07/17 05:57:45;;;;;;;1.70;1.60;;;;;14.70;102169.00;;;;5073633;28;20355;-68
2022/07/17 06:00:32;;;;;;;5.03;1.70;;;;;14.80;102179.00;;;;5077125;28;20797;-68
2022/07/17 06:03:18;;;;;;;5.17;1.70;;;;;14.90;102175.00;;;;5082337;28;20240;-69
2022/07/17 06:06:06;;;;;;;6.13;1.80;;;;;14.90;102170.00;;;;5084643;28;20322;-67
2022/07/17 06:08:52;;;;;;;2.13;1.80;;;;;15.00;102177.00;;;;5079682;28;20285;-67
2022/07/17 06:11:38;;;;;;;4.57;2.00;;;;;15.10;102178.00;;;;5085567;28;20203;-67
2022/07/17 06:14:25;;;;;;;2.10;1.40;;;;;15.20;102164.00;;;;5082697;28;20227;-66
2022/07/17 06:17:11;;;;;;;1.70;1.47;;;;;15.30;102161.00;;;;5081335;28;20247;-68
2022/07/17 06:19:58;;;;;;;6.60;1.50;;;;;15.40;102161.00;;;;5085686;28;20214;-68
2022/07/17 06:22:46;;;;;;;3.40;1.60;;;;;15.50;102175.00;;;;5079835;28;20229;-67
2022/07/17 06:25:32;;;;;;;4.60;1.47;;;;;15.50;102167.00;;;;5087048;28;20228;-69
2022/07/17 06:28:19;;;;;;;2.60;1.53;;;;;15.70;102173.00;;;;5081331;28;20207;-67
2022/07/17 06:31:05;;;;;;;3.07;1.47;;;;;15.80;102174.00;;;;5079904;28;20297;-69
2022/07/17 06:33:51;;;;;;;1.40;1.30;;;;;15.70;102164.00;;;;5085174;28;20306;-67
2022/07/17 06:36:37;;;;;;;1.70;1.20;;;;;15.80;102164.00;;;;5080437;28;20200;-67
2022/07/17 06:39:25;;;;;;;2.73;1.27;;;;;15.80;102174.00;;;;5087929;28;20211;-67
2022/07/17 06:42:11;;;;;;;1.40;1.30;;;;;15.80;102191.00;;;;5084439;28;20240;-68
2022/07/17 06:44:57;;;;;;;4.70;1.60;;;;;15.80;102193.00;;;;5081590;28;20356;-69
2022/07/17 06:47:44;;;;;;;2.33;1.17;;;;;16.00;102189.00;;;;5076873;28;20214;-68
2022/07/17 06:50:30;;;;;;;2.60;1.40;;;;;16.00;102188.00;;;;5079719;28;20229;-66
2022/07/17 06:53:17;;;;;;;1.30;1.20;;;;;16.30;102185.00;;;;5072162;28;20234;-67
2022/07/17 06:56:05;;;;;;;1.43;1.17;;;;;16.50;102175.00;;;;5085164;28;20231;-68
2022/07/17 06:58:51;;;;;;;3.87;1.23;;;;;16.30;102174.00;;;;5083441;28;20324;-68
2022/07/17 07:01:38;;;;;;;3.23;1.87;;;;;16.40;102157.00;;;;5087543;28;20209;-67
2022/07/17 07:04:27;;;;;;;2.87;1.30;;;;;16.50;102174.00;;;;5079258;28;20866;-68
2022/07/17 07:07:13;;;;;;;4.10;2.00;;;;;16.50;102175.00;;;;5087776;28;20722;-67
2022/07/17 07:09:59;;;;;;;1.93;1.27;;;;;16.50;102158.00;;;;5081427;28;20237;-70
2022/07/17 07:12:47;;;;;;;2.87;1.50;;;;;16.70;102157.00;;;;5077254;28;20222;-67
2022/07/17 07:15:34;;;;;;;1.37;1.13;;;;;16.80;102160.00;;;;5079309;28;20203;-69
2022/07/17 07:18:20;;;;;;;3.43;1.30;;;;;17.20;102151.00;;;;5088542;28;20323;-68
2022/07/17 07:21:06;;;;;;;2.67;1.20;;;;;17.30;102155.00;;;;5076926;28;20224;-69
2022/07/17 07:23:52;;;;;;;4.23;1.30;;;;;17.30;102159.00;;;;5086229;28;20222;-70
2022/07/17 07:26:39;;;;;;;3.30;1.27;;;;;17.40;102165.00;;;;5087807;28;20327;-69
2022/07/17 07:29:27;;;;;;;4.23;1.73;;;;;17.40;102175.00;;;;5079695;28;20226;-68
2022/07/17 07:32:13;;;;;;;6.43;2.33;;;;;17.50;102175.00;;;;5085995;28;20616;-67
2022/07/17 07:34:59;;;;;;;3.37;1.40;;;;;17.60;102182.00;;;;5083550;28;20270;-69
2022/07/17 07:37:45;;;;;;;2.43;1.20;;;;;17.70;102183.00;;;;5082521;28;20699;-69
2022/07/17 07:40:32;;;;;;;1.97;1.13;;;;;17.90;102182.00;;;;5072976;28;20215;-68
2022/07/17 07:43:18;;;;;;;1.50;1.13;;;;;17.90;102189.00;;;;5077234;28;20266;-71
2022/07/17 07:46:06;;;;;;;3.17;1.43;;;;;18.20;102193.00;;;;5083632;28;20246;-70
2022/07/17 07:48:52;;;;;;;4.20;1.13;;;;;18.20;102203.00;;;;5078753;28;20279;-68
2022/07/17 07:51:39;;;;;;;3.30;1.20;;;;;18.30;102205.00;;;;5080734;28;20588;-68
2022/07/17 07:54:45;;;;;;;2.13;1.37;;;;;18.10;102201.00;;;;5076817;28;20287;-69
2022/07/17 07:57:31;;;;;;;4.13;1.07;;;;;18.20;102203.00;;;;5081298;28;20297;-66
2022/07/17 08:00:18;;;;;;;3.13;1.37;;;;;18.40;102203.00;;;;5087047;28;20227;-67
2022/07/17 08:03:06;;;;;;;1.43;1.00;;;;;18.40;102197.00;;;;5087554;28;20230;-67
2022/07/17 08:05:52;;;;;;;0.97;0.80;;;;;18.30;102193.00;;;;5084190;28;20338;-66
2022/07/17 08:08:38;;;;;;;2.67;1.00;;;;;18.40;102207.00;;;;5075640;28;20216;-67
2022/07/17 08:11:25;;;;;;;1.17;1.07;;;;;18.50;102200.00;;;;5077153;28;20236;-67
2022/07/17 08:14:12;;;;;;;2.57;1.13;;;;;19.10;102199.00;;;;5084200;28;20210;-65
2022/07/17 08:17:02;;;;;;;1.23;1.13;;;;;19.40;102208.00;;;;5081388;28;20208;-66
2022/07/17 08:19:50;;;;;;;2.63;1.40;;;;;19.50;102211.00;;;;5082745;28;20263;-64
2022/07/17 08:22:36;;;;;;;1.33;1.20;;;;;19.30;102206.00;;;;5081212;28;20314;-66
2022/07/17 08:25:43;;;;;;;1.77;0.97;;;;;19.50;102219.00;;;;5086318;28;20752;-66
2022/07/17 08:28:30;;;;;;;2.70;1.10;;;;;19.70;102216.00;;;;5085231;28;20277;-65
2022/07/17 08:31:16;;;;;;;0.90;0.90;;;;;19.90;102223.00;;;;5085857;28;20227;-66
2022/07/17 08:34:03;;;;;;;1.10;1.00;;;;;19.90;102222.00;;;;5084606;28;20812;-65
2022/07/17 08:36:51;;;;;;;4.23;1.20;;;;;20.10;102230.00;;;;5079305;28;20204;-66
2022/07/17 08:39:37;;;;;;;1.47;1.00;;;;;20.20;102223.00;;;;5081882;28;20293;-67
2022/07/17 08:42:23;;;;;;;1.93;0.97;;;;;20.40;102226.00;;;;5068487;28;20791;-66
2022/07/17 08:45:10;;;;;;;2.97;1.00;;;;;20.60;102219.00;;;;5076913;28;20208;-66
2022/07/17 08:47:58;;;;;;;2.03;1.10;;;;;20.60;102211.00;;;;5079130;28;20207;-66
2022/07/17 08:50:45;;;;;;;1.70;1.20;;;;;20.70;102210.00;;;;5076280;28;20222;-65
2022/07/17 08:53:33;;;;;;;2.57;1.00;;;;;20.90;102202.00;;;;5085298;28;20677;-67
2022/07/17 08:56:19;;;;;;;2.33;1.07;;;;;20.70;102204.00;;;;5081069;28;20231;-66
2022/07/17 08:59:06;;;;;;;1.80;1.00;;;;;20.90;102195.00;;;;5076773;28;20711;-69
2022/07/17 09:01:52;;;;;;;2.63;1.13;;;;;21.10;102204.00;;;;5077695;28;20687;-70
2022/07/17 09:04:40;;;;;;;1.33;1.10;;;;;21.40;102211.00;;;;5078039;28;20204;-68
2022/07/17 09:07:26;;;;;;;1.90;1.20;;;;;21.40;102205.00;;;;5086321;28;20207;-67
2022/07/17 09:10:14;;;;;;;3.87;1.00;;;;;21.50;102199.00;;;;5077300;28;20231;-68
2022/07/17 09:13:01;;;;;;;2.50;1.00;;;;;21.60;102203.00;;;;5074526;28;20239;-67
2022/07/17 09:15:50;;;;;;;6.60;1.10;;;;;21.60;102208.00;;;;5081308;28;20203;-65
2022/07/17 09:18:44;;;;;;;0.80;0.80;;;;;21.70;102199.00;;;;5077737;28;20566;-66
2022/07/17 09:21:31;;;;;;;1.70;1.00;;;;;21.80;102200.00;;;;5077718;28;20601;-67
2022/07/17 09:24:18;;;;;;;2.63;1.03;;;;;21.80;102200.00;;;;5078221;28;20349;-65
2022/07/17 09:27:06;;;;;;;3.83;0.90;;;;;21.80;102194.00;;;;5076644;28;20843;-65
2022/07/17 09:29:55;;;;;;;2.30;1.00;;;;;22.00;102209.00;;;;5082228;28;20225;-66
2022/07/17 09:32:42;;;;;;;5.27;1.20;;;;;22.10;102197.00;;;;5078062;28;20252;-67
2022/07/17 09:35:29;;;;;;;3.73;1.20;;;;;22.20;102203.00;;;;5083752;28;20343;-64
2022/07/17 09:38:26;;;;;;;1.67;1.20;;;;;22.30;102198.00;;;;5082137;28;20218;-65
2022/07/17 09:41:15;;;;;;;1.37;1.07;;;;;22.50;102199.00;;;;5082933;28;20603;-65
2022/07/17 09:44:03;;;;;;;1.83;0.93;;;;;22.60;102192.00;;;;5077772;28;20238;-66
2022/07/17 09:46:51;;;;;;;1.30;1.00;;;;;22.90;102196.00;;;;5080771;28;20293;-67
2022/07/17 09:49:39;;;;;;;2.87;0.93;;;;;22.70;102196.00;;;;5084150;28;20356;-66
2022/07/17 09:52:32;;;;;;;2.80;1.30;;;;;22.80;102201.00;;;;5083709;28;20246;-68
2022/07/17 09:55:21;;;;;;;3.30;1.20;;;;;22.90;102194.00;;;;5080033;28;20872;-66
2022/07/17 09:58:32;;;;;;;2.77;1.10;;;;;22.70;102198.00;;;;5076915;28;20214;-68
2022/07/17 10:01:20;;;;;;;2.07;1.00;;;;;22.80;102191.00;;;;5088569;28;20360;-67
2022/07/17 10:04:08;;;;;;;2.53;1.20;;;;;23.20;102206.00;;;;5078058;28;20266;-67
2022/07/17 10:06:54;;;;;;;4.80;1.00;;;;;23.20;102203.00;;;;5083643;28;20206;-65
2022/07/17 10:09:41;;;;;;;1.10;1.00;;;;;23.20;102200.00;;;;5083968;28;20754;-66
2022/07/17 10:12:28;;;;;;;2.70;1.10;;;;;23.20;102195.00;;;;5077917;28;20228;-68
2022/07/17 10:15:16;;;;;;;1.47;1.10;;;;;23.50;102205.00;;;;5071438;28;20338;-68
2022/07/17 10:18:08;;;;;;;3.73;1.27;;;;;23.60;102201.00;;;;5081832;28;20572;-67
2022/07/17 10:21:05;;;;;;;3.10;1.17;;;;;23.80;102198.00;;;;5078816;28;20211;-67
2022/07/17 10:24:08;;;;;;;5.13;1.00;;;;;24.00;102206.00;;;;5088090;28;20258;-66
2022/07/17 10:26:54;;;;;;;1.37;1.00;;;;;23.80;102199.00;;;;5077511;28;20577;-66
2022/07/17 10:29:42;;;;;;;1.70;1.10;;;;;23.80;102213.00;;;;5089960;28;20208;-67
2022/07/17 10:32:33;;;;;;;1.30;1.20;;;;;23.60;102202.00;;;;5085421;28;20219;-67
2022/07/17 10:35:22;;;;;;;2.73;1.10;;;;;23.80;102206.00;;;;5082613;28;20219;-68
2022/07/17 10:38:11;;;;;;;1.07;0.83;;;;;24.00;102204.00;;;;5074861;28;20342;-66
2022/07/17 10:41:04;;;;;;;1.43;1.00;;;;;24.00;102198.00;;;;5085248;28;20254;-68
2022/07/17 10:43:51;;;;;;;3.17;1.10;;;;;24.00;102205.00;;;;5078057;28;20227;-65
2022/07/17 10:46:37;;;;;;;3.03;1.23;;;;;24.00;102208.00;;;;5087823;28;20207;-68
2022/07/17 10:49:27;;;;;;;3.17;0.93;;;;;24.30;102207.00;;;;5081573;28;20334;-68
2022/07/17 10:52:15;;;;;;;2.60;1.20;;;;;24.30;102199.00;;;;5084688;28;20235;-67
2022/07/17 10:55:04;;;;;;;2.53;1.10;;;;;24.60;102201.00;;;;5078111;28;20598;-68
2022/07/17 10:57:52;;;;;;;1.83;1.00;;;;;24.80;102204.00;;;;5082454;28;20211;-66
2022/07/17 11:00:39;;;;;;;1.03;0.90;;;;;24.70;102213.00;;;;5081288;28;20212;-68
2022/07/17 11:03:26;;;;;;;2.33;1.20;;;;;25.00;102204.00;;;;5075081;28;20714;-67
2022/07/17 11:06:16;;;;;;;1.20;0.83;;;;;24.80;102204.00;;;;5086174;28;20321;-66
2022/07/17 11:09:08;;;;;;;1.57;0.93;;;;;24.70;102203.00;;;;5079050;28;20231;-68
2022/07/17 11:11:55;;;;;;;1.87;1.23;;;;;25.10;102198.00;;;;5082169;28;20215;-68
2022/07/17 11:14:41;;;;;;;0.80;0.80;;;;;25.10;102195.00;;;;5088077;28;21834;-66
2022/07/17 11:17:27;;;;;;;3.27;1.07;;;;;25.30;102199.00;;;;5083285;28;20212;-67
2022/07/17 11:20:15;;;;;;;4.40;1.20;;;;;25.50;102195.00;;;;5080876;28;20318;-68
2022/07/17 11:23:01;;;;;;;3.20;1.00;;;;;25.70;102191.00;;;;5076683;28;20225;-67
2022/07/17 11:26:00;;;;;;;1.60;1.00;;;;;25.50;102194.00;;;;5080532;28;20739;-67
2022/07/17 11:28:48;;;;;;;1.37;1.03;;;;;25.40;102200.00;;;;5079213;28;21129;-67
2022/07/17 11:31:35;;;;;;;1.87;1.27;;;;;25.50;102194.00;;;;5088257;28;20775;-68
2022/07/17 11:34:21;;;;;;;2.43;1.00;;;;;25.50;102188.00;;;;5082627;28;20215;-68
2022/07/17 11:37:14;;;;;;;2.20;1.07;;;;;25.80;102186.00;;;;5086431;28;20215;-68
2022/07/17 11:40:01;;;;;;;1.75;1.20;;;;;25.70;102193.00;;;;5084170;28;20204;-66
2022/07/17 11:42:48;;;;;;;1.60;1.10;;;;;26.00;102194.00;;;;5081655;28;20230;-67
2022/07/17 11:45:35;;;;;;;1.80;0.97;;;;;26.10;102193.00;;;;5077339;28;20216;-67
2022/07/17 11:48:22;;;;;;;2.57;1.10;;;;;26.00;102192.00;;;;5083257;28;20204;-67
2022/07/17 11:51:08;;;;;;;1.97;1.23;;;;;26.30;102196.00;;;;5080582;28;20226;-67
2022/07/17 11:54:04;;;;;;;4.00;1.40;;;;;26.70;102183.00;;;;5087443;28;20231;-67
2022/07/17 11:56:57;;;;;;;2.35;0.95;;;;;26.70;102181.00;;;;5078812;28;20630;-66
2022/07/17 11:59:46;;;;;;;2.60;1.10;;;;;26.40;102177.00;;;;5078519;28;20218;-66
2022/07/17 12:02:34;;;;;;;4.22;1.05;;;;;26.40;102173.00;;;;5072494;28;20753;-67
2022/07/17 12:05:27;;;;;;;1.98;1.05;;;;;26.60;102176.00;;;;5080457;28;20293;-68
2022/07/17 12:08:19;;;;;;;2.15;0.90;;;;;26.70;102177.00;;;;5078244;28;20359;-68
2022/07/17 12:11:08;;;;;;;1.03;0.80;;;;;26.70;102173.00;;;;5081509;28;20747;-68
2022/07/17 12:13:54;;;;;;;2.22;1.05;;;;;26.90;102167.00;;;;5084848;28;20226;-69
2022/07/17 12:16:44;;;;;;;0.98;0.85;;;;;26.90;102170.00;;;;5083028;28;20215;-69
2022/07/17 12:19:31;;;;;;;1.13;0.90;;;;;26.60;102160.00;;;;5078715;28;20604;-70
2022/07/17 12:22:18;;;;;;;1.75;0.90;;;;;26.90;102169.00;;;;5080358;28;20230;-68
2022/07/17 12:25:06;;;;;;;1.27;0.98;;;;;27.20;102176.00;;;;5081430;28;20273;-69
2022/07/17 12:27:52;;;;;;;1.13;0.68;;;;;27.20;102170.00;;;;5087295;28;20220;-69
2022/07/17 12:30:38;;;;;;;1.85;1.02;;;;;27.10;102172.00;;;;5085255;28;20730;-67
2022/07/17 12:33:26;;;;;;;1.92;0.82;;;;;27.40;102165.00;;;;5084780;28;20300;-69
2022/07/17 12:36:13;;;;;;;1.27;1.00;;;;;27.60;102154.00;;;;5082133;28;20208;-68
2022/07/17 12:38:59;;;;;;;1.63;0.88;;;;;27.90;102167.00;;;;5073889;28;20211;-68
2022/07/17 12:41:47;;;;;;;1.10;0.90;;;;;27.80;102155.00;;;;5085928;28;20330;-68
2022/07/17 12:44:33;;;;;;;3.20;1.30;;;;;28.20;102164.00;;;;5078310;28;20286;-67
2022/07/17 12:47:19;;;;;;;2.40;0.80;;;;;27.70;102158.00;;;;5085478;28;20212;-66
2022/07/17 12:50:09;;;;;;;0.80;0.80;;;;;27.60;102164.00;;;;5085097;28;20244;-68
2022/07/17 12:52:55;;;;;;;2.05;0.75;;;;;27.40;102154.00;;;;5085934;28;20231;-69
2022/07/17 12:55:46;;;;;;;1.63;0.80;;;;;28.00;102158.00;;;;5085364;28;20214;-69
2022/07/17 12:58:33;;;;;;;0.65;0.65;;;;;28.10;102157.00;;;;5084738;28;20335;-70
2022/07/17 13:01:19;;;;;;;2.83;0.77;;;;;28.40;102154.00;;;;5082831;28;20814;-69
2022/07/17 13:04:06;;;;;;;1.52;0.80;;;;;28.10;102156.00;;;;5078665;28;20231;-69
2022/07/17 13:06:54;;;;;;;1.40;0.95;;;;;28.40;102147.00;;;;5076852;28;20364;-67
2022/07/17 13:09:40;;;;;;;2.53;1.52;;;;;28.60;102142.00;;;;5084055;28;21016;-68
2022/07/17 13:12:26;;;;;;;1.30;1.10;;;;;28.80;102143.00;;;;5083910;28;20236;-68
2022/07/17 13:15:13;;;;;;;1.38;1.25;;;;;28.80;102145.00;;;;5082053;28;20290;-67
2022/07/17 13:18:00;;;;;;;0.98;0.85;;;;;28.90;102141.00;;;;5078245;28;20208;-68
2022/07/17 13:20:47;;;;;;;1.65;0.80;;;;;28.80;102135.00;;;;5080613;28;20207;-68
2022/07/17 13:23:35;;;;;;;2.90;0.90;;;;;28.90;102138.00;;;;5072439;28;20367;-68
2022/07/17 13:26:21;;;;;;;0.77;0.70;;;;;29.00;102134.00;;;;5085182;28;20212;-68
2022/07/17 13:29:08;;;;;;;0.88;0.75;;;;;28.70;102139.00;;;;5082080;28;20210;-66
2022/07/17 13:31:56;;;;;;;2.85;0.90;;;;;29.00;102142.00;;;;5075907;28;20227;-67
2022/07/17 13:34:42;;;;;;;3.80;1.20;;;;;29.20;102139.00;;;;5080437;28;20208;-67
2022/07/17 13:37:28;;;;;;;0.70;0.70;;;;;29.20;102140.00;;;;5080583;28;20211;-65
2022/07/17 13:40:18;;;;;;;1.45;0.80;;;;;29.00;102135.00;;;;5075097;28;20378;-69
2022/07/17 13:43:08;;;;;;;1.05;0.73;;;;;29.30;102139.00;;;;5080307;28;20744;-68
2022/07/17 13:45:57;;;;;;;2.25;0.80;;;;;29.40;102134.00;;;;5079682;28;20349;-67
2022/07/17 13:48:43;;;;;;;0.77;0.70;;;;;29.60;102132.00;;;;5080277;28;20655;-68